Terminal Aerodrome Forecast
Issued by NWS Wilmington, OH

Current Version | Previous Version | Text Only | Print | Product List | Glossary On
Versions: 1 2 3 4 5 6 7 8 9 10 11 12 13 14 15
000
FTUS41 KILN 310900 AAA
TAFILN
TAF AMD
KILN 310934Z 3110/0106 18004KT 2SM -SHRA BR SCT012 OVC080
     FM311200 20006KT 2SM -SHRA BR OVC007
     FM311600 20008KT P6SM VCTS BKN015CB
     FM311800 20010KT P6SM VCTS BKN025CB
     FM312300 18006KT P6SM BKN030
     FM010300 21006KT 4SM BR BKN025=

USA.gov is the U.S. government's official web portal to all federal, state and local government web resources and services.